Time;durP1;ratioP1;P1;durP2;ratioP2;P2;SDS_P1;SDS_P2;PMS_P1;PMS_P2;Temp;Humidity;BMP_temperature;BMP_pressure;BME280_temperature;BME280_humidity;BME280_pressure;Samples;Min_cycle;Max_cycle;Signal;HPM_P1;HPM_P2
2022/07/09 00:00:04;;;;;;;5.70;4.30;;;;;;;-149.78;100.00;50088.13;5074747;28;20487;-73
2022/07/09 00:02:30;;;;;;;7.75;4.47;;;;;;;-149.78;100.00;50086.19;5072662;28;20154;-73
2022/07/09 00:04:56;;;;;;;7.97;4.70;;;;;;;-149.78;100.00;50111.59;5075383;28;20031;-73
2022/07/09 00:07:22;;;;;;;7.35;4.32;;;;;;;-149.78;100.00;50072.50;5072724;28;20068;-74
2022/07/09 00:09:48;;;;;;;7.00;4.82;;;;;;;-149.78;100.00;50076.41;5074575;28;20038;-73
2022/07/09 00:12:13;;;;;;;7.88;4.75;;;;;;;-149.78;100.00;50076.41;5073235;28;20105;-73
2022/07/09 00:14:39;;;;;;;7.18;4.57;;;;;;;-149.78;100.00;50080.31;5075167;28;20051;-73
2022/07/09 00:17:05;;;;;;;11.95;5.60;;;;;;;-149.78;100.00;50080.31;5073686;28;20035;-73
2022/07/09 00:19:31;;;;;;;8.50;5.80;;;;;;;-149.78;100.00;50092.03;5074024;28;20759;-73
2022/07/09 00:21:58;;;;;;;10.05;6.13;;;;;;;-149.78;100.00;50084.22;5075257;28;20020;-73
2022/07/09 00:24:23;;;;;;;8.63;5.60;;;;;;;-149.78;100.00;50064.66;5057278;28;20505;-73
2022/07/09 00:26:49;;;;;;;9.20;5.35;;;;;;;-149.78;100.00;50072.50;5074377;28;20047;-73
2022/07/09 00:29:14;;;;;;;10.02;5.63;;;;;;;-149.78;100.00;50060.75;5080623;28;20040;-73
2022/07/09 00:31:40;;;;;;;8.18;5.57;;;;;;;-149.78;100.00;50076.41;5077099;28;20665;-73
2022/07/09 00:34:06;;;;;;;10.02;5.43;;;;;;;-149.78;100.00;50064.66;5079491;28;20065;-73
2022/07/09 00:36:31;;;;;;;8.73;5.10;;;;;;;-149.78;100.00;50047.06;5079432;28;20039;-73
2022/07/09 00:38:57;;;;;;;10.27;6.53;;;;;;;-149.78;100.00;50076.41;5078888;28;20047;-73
2022/07/09 00:41:22;;;;;;;7.97;5.28;;;;;;;-149.78;100.00;50088.13;5085755;28;20044;-73
2022/07/09 00:43:49;;;;;;;10.32;5.18;;;;;;;-149.78;100.00;50099.88;5073897;28;20036;-73
2022/07/09 00:46:16;;;;;;;7.82;5.15;;;;;;;-149.78;100.00;50082.25;5081783;28;20093;-73
2022/07/09 00:48:42;;;;;;;10.23;5.43;;;;;;;-149.78;100.00;50060.75;5075189;28;20029;-73
2022/07/09 00:51:11;;;;;;;8.95;5.28;;;;;;;-149.78;100.00;50056.84;5071334;28;20385;-73
2022/07/09 00:53:38;;;;;;;8.13;5.20;;;;;;;-149.78;100.00;50076.41;5073565;28;20358;-73
2022/07/09 00:56:04;;;;;;;6.65;4.90;;;;;;;-149.78;100.00;50105.72;5073449;28;20039;-73
2022/07/09 00:58:31;;;;;;;10.40;5.13;;;;;;;-149.78;100.00;50080.31;5078948;28;20115;-73
2022/07/09 01:00:58;;;;;;;8.95;5.10;;;;;;;-149.78;100.00;50088.13;5077514;28;20776;-73
2022/07/09 01:03:24;;;;;;;11.02;5.63;;;;;;;-149.78;100.00;50072.50;5074167;28;20032;-73
2022/07/09 01:05:50;;;;;;;9.13;5.75;;;;;;;-149.78;100.00;50045.09;5077692;28;20454;-73
2022/07/09 01:08:16;;;;;;;8.48;4.95;;;;;;;-149.78;100.00;50095.94;5064347;28;20036;-74
2022/07/09 01:10:42;;;;;;;7.10;4.45;;;;;;;-149.78;100.00;50072.50;5077964;28;20467;-73
2022/07/09 01:13:08;;;;;;;8.82;5.40;;;;;;;-149.78;100.00;50072.50;5071267;28;20059;-73
2022/07/09 01:15:34;;;;;;;6.88;5.20;;;;;;;-149.78;100.00;50060.75;5064930;28;20029;-73
2022/07/09 01:18:00;;;;;;;8.50;4.60;;;;;;;-149.78;100.00;50086.19;5079995;28;20090;-73
2022/07/09 01:20:27;;;;;;;11.05;4.90;;;;;;;-149.78;100.00;50043.16;5071761;28;20024;-73
2022/07/09 01:22:52;;;;;;;6.85;4.60;;;;;;;-149.78;100.00;50086.19;5074550;28;20119;-73
2022/07/09 01:25:19;;;;;;;8.10;5.05;;;;;;;-149.78;100.00;50080.31;5069431;28;20532;-73
2022/07/09 01:27:46;;;;;;;10.32;4.25;;;;;;;-149.78;100.00;50025.56;5075178;28;20480;-73
2022/07/09 01:30:23;;;;;;;7.35;4.43;;;;;;;-149.78;100.00;50049.03;5073122;28;20625;-73
2022/07/09 01:32:49;;;;;;;7.72;4.20;;;;;;;-149.78;100.00;50084.22;5065753;28;20044;-73
2022/07/09 01:35:14;;;;;;;5.50;3.75;;;;;;;-149.78;100.00;50060.75;5076700;28;20041;-74
2022/07/09 01:37:40;;;;;;;6.22;3.72;;;;;;;-149.78;100.00;50060.75;5073570;28;20032;-73
2022/07/09 01:40:07;;;;;;;5.30;3.70;;;;;;;-149.78;100.00;50082.25;5073604;28;20163;-75
2022/07/09 01:42:32;;;;;;;6.07;4.07;;;;;;;-149.78;100.00;50099.88;5075958;28;20116;-75
2022/07/09 01:45:01;;;;;;;5.80;3.50;;;;;;;-149.78;100.00;50039.25;5071009;28;20032;-75
2022/07/09 01:47:26;;;;;;;5.90;3.75;;;;;;;-149.78;100.00;50050.97;5078920;28;20495;-75
2022/07/09 01:49:52;;;;;;;6.57;3.15;;;;;;;-149.78;100.00;50088.13;5063354;28;20036;-74
2022/07/09 01:52:17;;;;;;;5.35;3.08;;;;;;;-149.78;100.00;50080.31;5077280;28;20059;-74
2022/07/09 01:54:43;;;;;;;5.65;3.28;;;;;;;-149.78;100.00;50072.50;5065349;28;20062;-74
2022/07/09 01:57:09;;;;;;;5.15;3.20;;;;;;;-149.78;100.00;50076.41;5062479;28;20496;-74
2022/07/09 01:59:35;;;;;;;4.90;3.15;;;;;;;-149.78;100.00;50072.50;5073985;28;20389;-74
2022/07/09 02:02:01;;;;;;;4.60;3.30;;;;;;;-149.78;100.00;50052.94;5081014;28;20465;-73
2022/07/09 02:04:27;;;;;;;4.20;2.88;;;;;;;-149.78;100.00;50076.41;5077884;28;20431;-73
2022/07/09 02:06:53;;;;;;;6.13;2.90;;;;;;;-149.78;100.00;50080.31;5079539;28;20119;-74
2022/07/09 02:09:18;;;;;;;4.53;2.90;;;;;;;-149.78;100.00;50070.53;5074015;28;20170;-74
2022/07/09 02:11:44;;;;;;;5.78;2.97;;;;;;;-149.78;100.00;50070.53;5071999;28;20048;-73
2022/07/09 02:14:10;;;;;;;3.53;2.40;;;;;;;-149.78;100.00;50080.31;5063277;28;20044;-73
2022/07/09 02:16:36;;;;;;;4.47;2.55;;;;;;;-149.78;100.00;50080.31;5068783;28;20040;-73
2022/07/09 02:19:01;;;;;;;3.50;2.70;;;;;;;-149.78;100.00;50072.50;5076554;28;20508;-73
2022/07/09 02:21:28;;;;;;;5.60;2.30;;;;;;;-149.78;100.00;50064.66;5078570;28;20028;-73
2022/07/09 02:23:58;;;;;;;4.15;2.28;;;;;;;-149.78;100.00;50072.50;5063660;28;20031;-72
2022/07/09 02:26:25;;;;;;;3.08;2.30;;;;;;;-149.78;100.00;50095.94;5073485;28;20025;-73
2022/07/09 02:28:51;;;;;;;1.95;1.70;;;;;;;-149.78;100.00;50052.94;5071525;28;20029;-72
2022/07/09 02:31:17;;;;;;;2.83;1.90;;;;;;;-149.78;100.00;50090.09;5069976;28;20052;-73
2022/07/09 02:33:43;;;;;;;4.32;1.60;;;;;;;-149.78;100.00;50076.41;5077947;28;20119;-72
2022/07/09 02:36:09;;;;;;;2.03;1.80;;;;;;;-149.78;100.00;50099.88;5063195;28;20055;-72
2022/07/09 02:38:35;;;;;;;4.45;1.83;;;;;;;-149.78;100.00;50109.66;5071229;28;20039;-73
2022/07/09 02:41:01;;;;;;;2.63;2.00;;;;;;;-149.78;100.00;50052.94;5070962;28;20070;-73
2022/07/09 02:43:27;;;;;;;1.65;1.40;;;;;;;-149.78;100.00;50074.44;5084295;28;20044;-73
2022/07/09 02:45:55;;;;;;;3.55;2.00;;;;;;;-149.78;100.00;50111.59;5073157;28;20036;-73
2022/07/09 02:48:25;;;;;;;2.50;1.95;;;;;;;-149.78;100.00;50064.66;5076027;28;20042;-73
2022/07/09 02:50:51;;;;;;;4.95;1.80;;;;;;;-149.78;100.00;50080.31;5074927;28;20024;-73
2022/07/09 02:53:18;;;;;;;4.38;1.83;;;;;;;-149.78;100.00;50084.22;5077983;28;20936;-73
2022/07/09 02:55:44;;;;;;;2.58;1.60;;;;;;;-149.78;100.00;50045.09;5073196;28;20657;-72
2022/07/09 02:58:10;;;;;;;2.42;1.70;;;;;;;-149.78;100.00;50111.59;5079455;28;20064;-73
2022/07/09 03:00:36;;;;;;;1.90;1.70;;;;;;;-149.78;100.00;50101.81;5082607;28;20101;-73
2022/07/09 03:03:02;;;;;;;2.10;1.70;;;;;;;-149.78;100.00;50060.75;5067049;28;20393;-73
2022/07/09 03:05:28;;;;;;;2.53;1.85;;;;;;;-149.78;100.00;50060.75;5058420;28;20119;-73
2022/07/09 03:07:54;;;;;;;2.05;1.52;;;;;;;-149.78;100.00;50084.22;5071820;28;20029;-73
2022/07/09 03:10:20;;;;;;;2.15;1.92;;;;;;;-149.78;100.00;50088.13;5066000;28;20036;-73
2022/07/09 03:12:46;;;;;;;2.50;1.95;;;;;;;-149.78;100.00;50095.94;5069138;28;20036;-73
2022/07/09 03:15:14;;;;;;;3.75;2.72;;;;;;;-149.78;100.00;50092.03;5065465;28;20028;-73
2022/07/09 03:17:40;;;;;;;3.33;2.00;;;;;;;-149.78;100.00;50082.25;5069578;28;20065;-73
2022/07/09 03:20:06;;;;;;;1.52;1.42;;;;;;;-149.78;100.00;50099.88;5072342;28;20059;-73
2022/07/09 03:22:32;;;;;;;2.28;1.13;;;;;;;-149.78;100.00;50101.81;5072238;28;20035;-73
2022/07/09 03:24:57;;;;;;;0.80;0.80;;;;;;;-149.78;100.00;50105.72;5076676;28;20481;-73
2022/07/09 03:27:23;;;;;;;1.35;0.82;;;;;;;-149.78;100.00;50092.03;5074522;28;20090;-73
2022/07/09 03:29:49;;;;;;;0.70;0.70;;;;;;;-149.78;100.00;50072.50;5081534;28;20035;-73
2022/07/09 03:32:14;;;;;;;0.82;0.80;;;;;;;-149.78;100.00;50107.69;5078489;28;20501;-74
2022/07/09 03:34:40;;;;;;;0.68;0.68;;;;;;;-149.78;100.00;50115.50;5070654;28;20041;-73
2022/07/09 03:37:06;;;;;;;0.60;0.60;;;;;;;-149.78;100.00;50074.44;5058548;28;20036;-73
2022/07/09 03:39:32;;;;;;;0.80;0.60;;;;;;;-149.78;100.00;50088.13;5074995;28;20040;-72
2022/07/09 03:41:58;;;;;;;0.70;0.70;;;;;;;-149.78;100.00;50109.66;5072510;28;20028;-73
2022/07/09 03:44:24;;;;;;;0.50;0.50;;;;;;;-149.78;100.00;50084.22;5075168;28;20077;-73
2022/07/09 03:46:50;;;;;;;0.65;0.65;;;;;;;-149.78;100.00;50095.94;5075110;28;20104;-73
2022/07/09 03:49:15;;;;;;;0.55;0.55;;;;;;;-149.78;100.00;50092.03;5073210;28;20127;-73
2022/07/09 03:51:42;;;;;;;0.75;0.40;;;;;;;-149.78;100.00;50111.59;5042113;28;20446;-73
2022/07/09 03:54:07;;;;;;;0.60;0.60;;;;;;;-149.78;100.00;50119.41;5074949;28;20052;-72
2022/07/09 03:56:33;;;;;;;0.60;0.60;;;;;;;-149.78;100.00;50090.09;5081140;28;20042;-72
2022/07/09 03:58:59;;;;;;;0.60;0.60;;;;;;;-149.78;100.00;50076.41;5080570;28;20024;-73
2022/07/09 04:01:24;;;;;;;1.13;0.80;;;;;;;-149.78;100.00;50115.50;5082875;28;20480;-73
2022/07/09 04:03:50;;;;;;;0.57;0.57;;;;;;;-149.78;100.00;50119.41;5063934;28;20505;-73
2022/07/09 04:06:15;;;;;;;1.15;0.80;;;;;;;-149.78;100.00;50119.41;5081458;28;20085;-73
2022/07/09 04:08:41;;;;;;;1.20;0.60;;;;;;;-149.78;100.00;50107.69;5080837;28;20057;-73
2022/07/09 04:11:07;;;;;;;0.65;0.60;;;;;;;-149.78;100.00;50084.22;5061256;28;20032;-73
2022/07/09 04:13:32;;;;;;;0.60;0.60;;;;;;;-149.78;100.00;50080.31;5078219;28;20050;-73
2022/07/09 04:15:58;;;;;;;0.60;0.60;;;;;;;-149.78;100.00;50078.34;5081001;28;20032;-72
2022/07/09 04:18:23;;;;;;;0.70;0.65;;;;;;;-149.78;100.00;50111.59;5079220;28;20039;-73
2022/07/09 04:20:49;;;;;;;0.50;0.50;;;;;;;-149.78;100.00;50119.41;5082550;28;20117;-74
2022/07/09 04:23:15;;;;;;;0.47;0.47;;;;;;;-149.78;100.00;50111.59;5080312;28;20039;-73
2022/07/09 04:25:41;;;;;;;0.47;0.47;;;;;;;-149.78;100.00;50086.19;5080065;28;20047;-73
2022/07/09 04:28:06;;;;;;;0.50;0.50;;;;;;;-149.78;100.00;50162.44;5079233;28;20054;-73
2022/07/09 04:30:32;;;;;;;0.43;0.43;;;;;;;-149.78;100.00;50115.50;5081046;28;20456;-73
2022/07/09 04:32:58;;;;;;;0.40;0.40;;;;;;;-149.78;100.00;50107.69;5080337;28;20063;-73
2022/07/09 04:35:23;;;;;;;0.40;0.40;;;;;;;-149.78;100.00;50111.59;5080755;28;20032;-73
2022/07/09 04:37:49;;;;;;;0.40;0.40;;;;;;;-149.78;100.00;50125.28;5079420;28;20285;-73
2022/07/09 04:40:14;;;;;;;0.60;0.50;;;;;;;-149.78;100.00;50119.41;5077584;28;20112;-73
2022/07/09 04:42:40;;;;;;;0.47;0.47;;;;;;;-149.78;100.00;50127.25;5079496;28;20036;-73
2022/07/09 04:45:06;;;;;;;0.52;0.40;;;;;;;-149.78;100.00;50133.09;5079275;28;20549;-72
2022/07/09 04:47:32;;;;;;;0.45;0.40;;;;;;;-149.78;100.00;50111.59;5082010;28;20043;-73
2022/07/09 04:49:58;;;;;;;0.50;0.50;;;;;;;-149.78;100.00;50131.16;5081721;28;20036;-73
2022/07/09 04:52:26;;;;;;;0.50;0.50;;;;;;;-149.78;100.00;50135.06;5081289;28;20043;-73
2022/07/09 04:54:53;;;;;;;0.50;0.50;;;;;;;-149.78;100.00;50113.56;5081368;28;20059;-73
2022/07/09 04:57:18;;;;;;;0.90;0.63;;;;;;;-149.78;100.00;50107.69;5083353;28;20032;-73
2022/07/09 04:59:44;;;;;;;1.20;0.50;;;;;;;-149.78;100.00;50088.13;5083990;28;20235;-73
2022/07/09 05:02:10;;;;;;;0.50;0.45;;;;;;;-149.78;100.00;50107.69;5077489;28;20049;-73
2022/07/09 05:04:36;;;;;;;0.50;0.50;;;;;;;-149.78;100.00;50131.16;5082160;28;20048;-73
2022/07/09 05:07:02;;;;;;;0.50;0.50;;;;;;;-149.78;100.00;50105.72;5080397;28;20098;-73
2022/07/09 05:09:27;;;;;;;0.60;0.60;;;;;;;-149.78;100.00;50103.78;5078219;28;20127;-73
2022/07/09 05:11:54;;;;;;;0.70;0.70;;;;;;;-149.78;100.00;50107.69;5074241;28;20032;-73
2022/07/09 05:14:19;;;;;;;0.63;0.63;;;;;;;-149.78;100.00;50121.38;5076623;28;20389;-74
2022/07/09 05:16:45;;;;;;;0.70;0.70;;;;;;;-149.78;100.00;50078.34;5078742;28;20024;-74
2022/07/09 05:19:12;;;;;;;0.60;0.60;;;;;;;-149.78;100.00;50131.16;5075864;28;20183;-74
2022/07/09 05:21:38;;;;;;;1.80;0.65;;;;;;;-149.78;100.00;50105.72;5077700;28;20138;-74
2022/07/09 05:24:05;;;;;;;0.68;0.68;;;;;;;-149.78;100.00;50101.81;5077500;28;20036;-72
2022/07/09 05:26:31;;;;;;;0.82;0.82;;;;;;;-149.78;100.00;50113.56;5078226;28;20020;-73
2022/07/09 05:28:57;;;;;;;1.10;1.00;;;;;;;-149.78;100.00;50138.97;5077648;28;20969;-73
2022/07/09 05:31:22;;;;;;;0.70;0.70;;;;;;;-149.78;100.00;50119.41;5079692;28;20024;-73
2022/07/09 05:33:48;;;;;;;1.48;0.82;;;;;;;-149.78;100.00;50111.59;5079757;28;20146;-73
2022/07/09 05:36:13;;;;;;;0.80;0.80;;;;;;;-149.78;100.00;50092.03;5079465;28;20032;-72
2022/07/09 05:38:39;;;;;;;1.08;0.73;;;;;;;-149.78;100.00;50127.25;5077518;28;20464;-73
2022/07/09 05:41:05;;;;;;;1.02;0.85;;;;;;;-149.78;100.00;50099.88;5077872;28;20052;-72
2022/07/09 05:43:30;;;;;;;0.77;0.77;;;;;;;-149.78;100.00;50135.06;5076980;28;20020;-73
2022/07/09 05:45:56;;;;;;;0.80;0.80;;;;;;;-149.78;100.00;50123.34;5078273;28;20589;-72
2022/07/09 05:48:22;;;;;;;0.80;0.80;;;;;;;-149.78;100.00;50123.34;5079691;28;20450;-72
2022/07/09 05:50:48;;;;;;;0.75;0.73;;;;;;;-149.78;100.00;50107.69;5079973;28;20431;-73
2022/07/09 05:53:13;;;;;;;0.90;0.70;;;;;;;-149.78;100.00;50127.25;5081762;28;20040;-72
2022/07/09 05:55:39;;;;;;;0.65;0.65;;;;;;;-149.78;100.00;50135.06;5083186;28;20058;-73
2022/07/09 05:58:05;;;;;;;0.65;0.60;;;;;;;-149.78;100.00;50092.03;5078462;28;20032;-73
2022/07/09 06:00:31;;;;;;;0.90;0.63;;;;;;;-149.78;100.00;50111.59;5082603;28;20077;-73
2022/07/09 06:02:57;;;;;;;1.58;0.60;;;;;;;-149.78;100.00;50111.59;5083017;28;20040;-72
2022/07/09 06:05:22;;;;;;;0.70;0.70;;;;;;;-149.78;100.00;50099.88;5082848;28;20423;-73
2022/07/09 06:07:48;;;;;;;0.77;0.70;;;;;;;-149.78;100.00;50097.91;5080915;28;20689;-73
2022/07/09 06:10:16;;;;;;;0.55;0.55;;;;;;;-149.78;100.00;50115.50;5080789;28;20032;-73
2022/07/09 06:12:42;;;;;;;2.45;0.68;;;;;;;-149.78;100.00;50111.59;5082074;28;20028;-72
2022/07/09 06:15:12;;;;;;;0.88;0.60;;;;;;;-149.78;100.00;50084.22;5081421;28;20036;-72
2022/07/09 06:17:37;;;;;;;0.82;0.70;;;;;;;-149.78;100.00;50133.09;5079212;28;20040;-72
2022/07/09 06:20:05;;;;;;;0.77;0.75;;;;;;;-149.78;100.00;50092.03;5082034;28;20028;-73
2022/07/09 06:22:31;;;;;;;2.40;0.70;;;;;;;-149.78;100.00;50115.50;5064406;28;20050;-73
2022/07/09 06:24:56;;;;;;;0.85;0.85;;;;;;;-149.78;100.00;50047.06;5082054;28;20095;-73
2022/07/09 06:27:22;;;;;;;0.80;0.70;;;;;;;-149.78;100.00;50095.94;5079895;28;20188;-73
2022/07/09 06:29:48;;;;;;;0.95;0.70;;;;;;;-149.78;100.00;50099.88;5080244;28;20450;-73
2022/07/09 06:32:13;;;;;;;0.93;0.80;;;;;;;-149.78;100.00;50109.66;5082061;28;20726;-73
2022/07/09 06:34:39;;;;;;;0.50;0.50;;;;;;;-149.78;100.00;50105.72;5078014;28;20658;-72
2022/07/09 06:37:04;;;;;;;0.90;0.60;;;;;;;-149.78;100.00;50099.88;5081055;28;20136;-73
2022/07/09 06:39:45;;;;;;;1.20;0.68;;;;;;;-149.78;100.00;50127.25;5061275;28;20039;-72
2022/07/09 06:42:16;;;;;;;0.60;0.60;;;;;;;-149.78;100.00;50101.81;5076484;28;20064;-73
2022/07/09 06:44:42;;;;;;;0.60;0.50;;;;;;;-149.78;100.00;50088.13;5079081;28;20433;-73
2022/07/09 06:47:08;;;;;;;0.70;0.70;;;;;;;-149.78;100.00;50084.22;5074801;28;21392;-73
2022/07/09 06:49:34;;;;;;;0.65;0.65;;;;;;;-149.78;100.00;50076.41;5079959;28;20036;-73
2022/07/09 06:52:00;;;;;;;0.80;0.80;;;;;;;-149.78;100.00;50058.78;5070658;28;20036;-73
2022/07/09 06:54:26;;;;;;;0.98;0.70;;;;;;;-149.78;100.00;50025.56;5074049;28;20101;-73
2022/07/09 06:56:52;;;;;;;1.02;0.85;;;;;;;-149.78;76.31;50007.94;5071229;28;20039;-73
2022/07/09 06:59:18;;;;;;;0.60;0.60;;;;;;;-149.78;68.75;50006.00;5055289;28;20380;-73
2022/07/09 07:01:44;;;;;;;0.88;0.57;;;;;;;-149.78;63.62;50006.00;5056393;28;20032;-73
2022/07/09 07:04:12;;;;;;;0.55;0.55;;;;;;;-149.78;60.96;50009.91;5074930;28;20040;-73
2022/07/09 07:06:39;;;;;;;1.38;0.95;;;;;;;-149.78;56.86;49959.06;5071597;28;20043;-71
2022/07/09 07:09:05;;;;;;;0.80;0.80;;;;;;;-149.78;57.47;49986.44;5073279;28;20041;-73
2022/07/09 07:11:31;;;;;;;0.95;0.60;;;;;;;-149.78;54.30;49951.25;5055636;28;21452;-71
2022/07/09 07:13:56;;;;;;;0.60;0.60;;;;;;;-149.78;52.74;49974.72;5054416;28;20099;-73
2022/07/09 07:16:22;;;;;;;0.88;0.70;;;;;;;-149.78;51.67;49986.44;5056665;28;20036;-73
2022/07/09 07:18:48;;;;;;;1.20;0.90;;;;;;;-149.78;51.42;49962.97;5058899;28;20412;-73
2022/07/09 07:21:14;;;;;;;0.60;0.60;;;;;;;-149.78;49.27;49951.25;5072863;28;20119;-73
2022/07/09 07:23:39;;;;;;;0.60;0.60;;;;;;;-149.78;46.06;49916.03;5069172;28;20043;-73
2022/07/09 07:26:05;;;;;;;0.60;0.60;;;;;;;-149.78;43.67;49896.50;5071552;28;20182;-73
2022/07/09 07:28:31;;;;;;;2.10;0.80;;;;;;;-149.78;43.16;49880.84;5067341;28;20147;-72
2022/07/09 07:30:57;;;;;;;0.85;0.60;;;;;;;-149.78;41.04;49876.94;5069898;28;20173;-73
2022/07/09 07:33:22;;;;;;;1.42;0.60;;;;;;;-149.78;40.12;49865.19;5054602;28;20036;-73
2022/07/09 07:35:48;;;;;;;1.33;0.50;;;;;;;-149.78;38.08;49814.34;5073599;28;20031;-73
2022/07/09 07:38:14;;;;;;;2.45;0.77;;;;;;;-149.78;38.07;49822.19;5073888;28;20051;-73
2022/07/09 07:40:40;;;;;;;1.00;0.63;;;;;;;-149.78;38.12;49830.00;5074664;28;20097;-72
2022/07/09 07:43:05;;;;;;;3.65;0.63;;;;;;;-149.78;37.93;49814.34;5057848;28;20063;-73
2022/07/09 07:45:32;;;;;;;0.93;0.80;;;;;;;-149.78;36.98;49771.34;5073149;28;20044;-72
2022/07/09 07:47:57;;;;;;;0.85;0.77;;;;;;;-149.78;35.73;49790.91;5090149;28;20537;-71
2022/07/09 07:50:24;;;;;;;1.05;0.93;;;;;;;-149.78;34.85;49781.13;5055870;28;20028;-73
2022/07/09 07:52:50;;;;;;;0.65;0.65;;;;;;;-149.78;35.82;49769.38;5071673;28;20071;-71
2022/07/09 07:55:16;;;;;;;0.98;0.70;;;;;;;-149.78;35.73;49783.06;5072983;28;20063;-71
2022/07/09 07:57:42;;;;;;;0.70;0.68;;;;;;;-149.78;35.57;49767.44;5073358;28;20035;-73
2022/07/09 08:00:08;;;;;;;0.70;0.70;;;;;;;-149.78;35.30;49724.41;5074429;28;20421;-70
2022/07/09 08:02:34;;;;;;;0.60;0.60;;;;;;;-149.78;34.74;49759.59;5073445;28;20047;-71
2022/07/09 08:05:00;;;;;;;0.60;0.60;;;;;;;-149.78;33.98;49759.59;5075332;28;20035;-71
2022/07/09 08:07:26;;;;;;;2.63;0.88;;;;;;;-149.78;34.09;49790.91;5074594;28;20047;-73
2022/07/09 08:09:52;;;;;;;0.68;0.60;;;;;;;-149.78;33.18;49720.50;5069435;28;20063;-71
2022/07/09 08:12:18;;;;;;;1.40;0.70;;;;;;;-149.78;32.20;49693.13;5072737;28;20047;-71
2022/07/09 08:14:44;;;;;;;0.80;0.80;;;;;;;-149.78;31.88;49720.50;5072800;28;20040;-71
2022/07/09 08:17:10;;;;;;;0.85;0.68;;;;;;;-149.78;33.13;49730.28;5073299;28;20060;-71
2022/07/09 08:19:36;;;;;;;0.80;0.80;;;;;;;-149.78;32.47;49681.38;5072559;28;20127;-71
2022/07/09 08:22:02;;;;;;;0.70;0.70;;;;;;;-149.78;31.90;49740.06;5072555;28;20362;-70
2022/07/09 08:24:28;;;;;;;2.03;1.67;;;;;;;-149.78;32.42;49740.06;5073363;28;20109;-71
2022/07/09 08:26:54;;;;;;;1.00;0.90;;;;;;;-149.78;32.34;49732.22;5075247;28;20039;-71
2022/07/09 08:29:19;;;;;;;2.55;1.30;;;;;;;-149.78;32.31;49736.13;5055863;28;20038;-71
2022/07/09 08:31:45;;;;;;;3.30;2.42;;;;;;;-149.78;32.83;49763.53;5075146;28;20032;-70
2022/07/09 08:34:10;;;;;;;0.90;0.75;;;;;;;-149.78;33.53;49751.78;5073918;28;20038;-72
2022/07/09 08:36:37;;;;;;;1.10;0.95;;;;;;;-149.78;33.09;49740.06;5073701;28;20032;-71
2022/07/09 08:39:02;;;;;;;1.05;0.70;;;;;;;-149.78;33.20;49749.81;5073709;28;20542;-70
2022/07/09 08:41:28;;;;;;;2.38;0.80;;;;;;;-149.78;33.19;49718.53;5075675;28;20048;-71
2022/07/09 08:43:56;;;;;;;0.80;0.80;;;;;;;-149.78;32.39;49732.22;5074248;28;20043;-72
2022/07/09 08:46:23;;;;;;;1.15;0.88;;;;;;;-149.78;32.92;49708.75;5053993;28;20362;-69
2022/07/09 08:48:49;;;;;;;1.85;0.73;;;;;;;-149.78;32.73;49753.75;5072187;28;20043;-71
2022/07/09 08:51:16;;;;;;;0.70;0.70;;;;;;;-149.78;32.05;49786.97;5056109;28;20036;-71
2022/07/09 08:53:43;;;;;;;0.80;0.80;;;;;;;-149.78;31.46;49697.03;5071451;28;20044;-75
2022/07/09 08:56:10;;;;;;;0.70;0.70;;;;;;;-149.78;31.92;49747.88;5071238;28;20028;-73
2022/07/09 08:58:37;;;;;;;0.60;0.60;;;;;;;-149.78;31.12;49720.50;5071691;28;20039;-71
2022/07/09 09:01:04;;;;;;;2.20;1.00;;;;;;;-149.78;32.30;49736.13;5073821;28;20159;-70
2022/07/09 09:03:29;;;;;;;1.38;0.70;;;;;;;-149.78;32.32;49712.69;5065307;28;20020;-72
2022/07/09 09:06:07;;;;;;;1.17;0.70;;;;;;;-149.78;32.21;49763.53;5069688;28;20918;-70
2022/07/09 09:08:40;;;;;;;1.60;1.00;;;;;;;-149.78;33.58;49798.72;5069315;28;20052;-70
2022/07/09 09:11:08;;;;;;;1.13;0.65;;;;;;;-149.78;33.83;49783.06;5069086;28;20024;-70
2022/07/09 09:13:40;;;;;;;0.93;0.80;;;;;;;-149.78;33.44;49806.53;5072653;28;20099;-73
2022/07/09 09:16:08;;;;;;;1.50;0.93;;;;;;;-149.78;34.38;49775.25;5072343;28;20089;-74
2022/07/09 09:18:45;;;;;;;2.60;0.75;;;;;;;-149.78;33.79;49759.59;5073935;28;20412;-74
2022/07/09 09:21:13;;;;;;;5.25;0.80;;;;;;;-149.78;32.43;49716.59;5074527;28;20021;-74
2022/07/09 09:23:53;;;;;;;1.55;0.80;;;;;;;-149.78;31.83;49724.41;5056372;28;20036;-74
2022/07/09 09:26:22;;;;;;;1.08;0.80;;;;;;;-149.78;31.18;49708.75;5073801;28;20049;-74
2022/07/09 09:29:01;;;;;;;3.00;0.90;;;;;;;-149.78;31.73;49708.75;5068063;28;20630;-71
2022/07/09 09:31:29;;;;;;;1.75;0.80;;;;;;;-149.78;32.28;49728.31;5065464;28;20032;-70
2022/07/09 09:33:56;;;;;;;2.38;0.88;;;;;;;-149.78;31.93;49728.31;5065288;28;20131;-74
2022/07/09 09:36:31;;;;;;;2.80;0.85;;;;;;;-149.78;30.56;49665.75;5069314;28;20119;-73
2022/07/09 09:39:14;;;;;;;0.82;0.80;;;;;;;-149.78;31.35;49716.59;5080280;28;20073;-74
2022/07/09 09:41:43;;;;;;;0.80;0.80;;;;;;;-149.78;30.50;49708.75;5077273;28;20032;-74
2022/07/09 09:44:11;;;;;;;0.80;0.80;;;;;;;-149.78;30.07;49661.84;5078645;28;20185;-75
2022/07/09 09:46:38;;;;;;;1.20;0.90;;;;;;;-149.78;31.08;49732.22;5077275;28;20067;-74
2022/07/09 09:49:09;;;;;;;1.23;0.80;;;;;;;-149.78;30.96;49736.13;5078701;28;21511;-75
2022/07/09 09:51:36;;;;;;;1.17;0.85;;;;;;;-149.78;32.07;49724.41;5078381;28;20077;-74
2022/07/09 09:54:04;;;;;;;1.88;0.95;;;;;;;-149.78;32.07;49771.34;5078206;28;20040;-74
2022/07/09 09:56:32;;;;;;;2.40;0.77;;;;;;;-149.78;31.55;49697.03;5077458;28;20050;-74
2022/07/09 09:58:59;;;;;;;1.05;0.90;;;;;;;-149.78;31.14;49683.34;5080813;28;20027;-73
2022/07/09 10:01:27;;;;;;;1.23;0.90;;;;;;;-149.78;31.00;49697.03;5080555;28;20031;-74
2022/07/09 10:03:54;;;;;;;1.23;0.75;;;;;;;-149.78;30.62;49673.56;5079817;28;20016;-73
2022/07/09 10:06:21;;;;;;;0.82;0.80;;;;;;;-149.78;30.36;49704.84;5079058;28;20056;-73
2022/07/09 10:08:47;;;;;;;1.85;0.70;;;;;;;-149.78;30.57;49704.84;5080991;28;20064;-73
2022/07/09 10:11:12;;;;;;;2.22;0.82;;;;;;;-149.78;31.06;49728.31;5082516;28;20400;-73
2022/07/09 10:13:49;;;;;;;0.95;0.80;;;;;;;-149.78;31.67;49720.50;5084503;28;20600;-72
2022/07/09 10:16:15;;;;;;;1.08;0.85;;;;;;;-149.78;32.97;49794.81;5082218;28;20113;-74
2022/07/09 10:18:53;;;;;;;2.80;1.10;;;;;;;-149.78;33.33;49790.91;5081452;28;21123;-73
2022/07/09 10:21:29;;;;;;;2.15;0.90;;;;;;;-149.78;33.44;49830.00;5082309;28;20473;-73
2022/07/09 10:23:55;;;;;;;2.97;1.05;;;;;;;-149.78;33.66;49767.44;5063587;28;20159;-73
2022/07/09 10:26:20;;;;;;;1.73;0.93;;;;;;;-149.78;34.20;49794.81;5061740;28;20046;-72
2022/07/09 10:28:46;;;;;;;4.20;1.20;;;;;;;-149.78;34.49;49802.63;5081075;28;20043;-73
2022/07/09 10:31:19;;;;;;;2.67;0.63;;;;;;;-149.78;33.90;49771.34;5078688;28;20048;-72
2022/07/09 10:33:55;;;;;;;3.38;1.10;;;;;;;-149.78;33.90;49798.72;5080763;28;20020;-72
2022/07/09 10:36:20;;;;;;;3.42;0.90;;;;;;;-149.78;34.15;49790.91;5079781;28;20035;-71
2022/07/09 10:38:56;;;;;;;1.00;0.88;;;;;;;-149.78;35.01;49790.91;5063993;28;20481;-72
2022/07/09 10:41:23;;;;;;;1.33;0.80;;;;;;;-149.78;34.57;49790.91;5081390;28;20044;-71
2022/07/09 10:43:53;;;;;;;1.48;1.02;;;;;;;-149.78;34.49;49794.81;5081486;28;20036;-71
2022/07/09 10:46:20;;;;;;;1.50;1.00;;;;;;;-149.78;34.80;49802.63;5081709;28;20040;-72
2022/07/09 10:48:46;;;;;;;2.10;1.10;;;;;;;-149.78;34.68;49779.16;5080813;28;20036;-73
2022/07/09 10:51:19;;;;;;;1.27;0.80;;;;;;;-149.78;34.38;49794.81;5081391;28;20499;-71
2022/07/09 10:53:45;;;;;;;2.42;1.00;;;;;;;-149.78;34.21;49790.91;5080801;28;20020;-74
2022/07/09 10:56:16;;;;;;;2.15;0.80;;;;;;;-149.78;34.38;49810.44;5080382;28;20357;-74
2022/07/09 10:58:46;;;;;;;1.45;0.90;;;;;;;-149.78;35.78;49781.13;5081021;28;20075;-73
2022/07/09 11:01:18;;;;;;;;;;;;;;;-149.78;35.35;49781.13;5083828;28;21426;-73
2022/07/09 11:03:49;;;;;;;0.93;0.68;;;;;;;-149.78;35.28;49749.81;5079046;28;19908;-74
2022/07/09 11:06:14;;;;;;;2.13;1.00;;;;;;;-149.78;35.06;49773.28;5081962;28;20038;-73
2022/07/09 11:08:40;;;;;;;1.15;1.05;;;;;;;-149.78;35.09;49798.72;5059563;28;20481;-73